Time;durP1;ratioP1;P1;durP2;ratioP2;P2;SDS_P1;SDS_P2;PMS_P1;PMS_P2;Temp;Humidity;BMP_temperature;BMP_pressure;BME280_temperature;BME280_humidity;BME280_pressure;Samples;Min_cycle;Max_cycle;Signal;HPM_P1;HPM_P2
2024/02/20 00:02:01;;;;;;;3.70;2.17;;;9.90;99.90;;;;;;4920694;29;20428;-63
2024/02/20 00:04:28;;;;;;;6.05;2.15;;;9.90;99.90;;;;;;4916462;29;20047;-63
2024/02/20 00:06:55;;;;;;;3.58;2.05;;;9.90;99.90;;;;;;4921324;29;20083;-64
2024/02/20 00:09:22;;;;;;;7.70;2.30;;;9.90;99.90;;;;;;4925282;29;20624;-64
2024/02/20 00:11:48;;;;;;;4.03;2.38;;;10.00;99.90;;;;;;4917123;29;20079;-64
2024/02/20 00:14:15;;;;;;;5.78;2.42;;;10.00;99.90;;;;;;4920825;29;20107;-63
2024/02/20 00:16:42;;;;;;;2.08;1.73;;;10.00;99.90;;;;;;4921508;29;20086;-63
2024/02/20 00:19:08;;;;;;;5.90;2.33;;;10.00;99.90;;;;;;4915799;29;20052;-63
2024/02/20 00:21:35;;;;;;;6.00;2.22;;;9.90;99.90;;;;;;4920375;29;20056;-64
2024/02/20 00:24:02;;;;;;;2.75;1.95;;;9.90;99.90;;;;;;4916447;29;20051;-64
2024/02/20 00:26:29;;;;;;;5.68;2.28;;;9.90;99.90;;;;;;4919090;29;20138;-63
2024/02/20 00:28:56;;;;;;;5.90;2.55;;;9.90;99.90;;;;;;4920218;29;20083;-63
2024/02/20 00:31:22;;;;;;;3.42;1.80;;;9.90;99.90;;;;;;4920690;29;20140;-63
2024/02/20 00:33:49;;;;;;;3.40;2.10;;;9.80;99.90;;;;;;4915638;29;20044;-63
2024/02/20 00:36:16;;;;;;;5.95;2.25;;;9.80;99.90;;;;;;4918577;29;20175;-63
2024/02/20 00:38:43;;;;;;;2.53;1.75;;;9.80;99.90;;;;;;4918040;29;20050;-63
2024/02/20 00:41:10;;;;;;;5.78;2.30;;;9.80;99.90;;;;;;4919564;29;20059;-63
2024/02/20 00:43:36;;;;;;;4.70;2.10;;;9.80;99.90;;;;;;4916519;29;20051;-63
2024/02/20 00:46:04;;;;;;;3.22;1.65;;;9.80;99.90;;;;;;4918089;29;20063;-63
2024/02/20 00:48:32;;;;;;;4.72;2.00;;;9.80;99.90;;;;;;4916288;29;20524;-66
2024/02/20 00:50:59;;;;;;;3.75;1.70;;;9.70;99.90;;;;;;4920508;29;20083;-63
2024/02/20 00:53:26;;;;;;;2.70;1.52;;;9.80;99.90;;;;;;4919857;29;20589;-63
2024/02/20 00:55:52;;;;;;;5.15;1.85;;;9.80;99.90;;;;;;4917941;29;20048;-63
2024/02/20 00:58:19;;;;;;;3.38;1.65;;;9.80;99.90;;;;;;4917215;29;20044;-63
2024/02/20 01:00:47;;;;;;;3.33;1.70;;;9.80;99.90;;;;;;4902852;29;20052;-64
2024/02/20 01:03:15;;;;;;;3.05;1.80;;;9.80;99.90;;;;;;4917992;29;20052;-63
2024/02/20 01:05:41;;;;;;;4.90;1.70;;;9.80;99.90;;;;;;4924179;29;20060;-64
2024/02/20 01:08:08;;;;;;;3.38;2.17;;;9.80;99.90;;;;;;4925433;29;20276;-63
2024/02/20 01:10:35;;;;;;;3.60;1.80;;;9.80;99.90;;;;;;4927821;29;20507;-63
2024/02/20 01:13:02;;;;;;;4.78;1.80;;;9.80;99.90;;;;;;4927282;29;20120;-66
2024/02/20 01:15:29;;;;;;;2.72;1.50;;;9.80;99.90;;;;;;4929226;29;20051;-63
2024/02/20 01:17:56;;;;;;;1.92;1.15;;;9.80;99.90;;;;;;4924060;29;20090;-63
2024/02/20 01:20:22;;;;;;;6.18;1.42;;;9.80;99.90;;;;;;4926834;29;20106;-63
2024/02/20 01:22:50;;;;;;;3.33;1.45;;;9.70;99.90;;;;;;4916302;29;20052;-63
2024/02/20 01:25:17;;;;;;;4.28;1.45;;;9.80;99.90;;;;;;4927078;29;20056;-63
2024/02/20 01:27:44;;;;;;;4.63;1.63;;;9.80;99.90;;;;;;4924448;29;20050;-63
2024/02/20 01:30:11;;;;;;;3.50;1.30;;;9.70;99.90;;;;;;4920648;29;20051;-63
2024/02/20 01:32:38;;;;;;;2.45;1.40;;;9.60;99.90;;;;;;4920629;29;20493;-63
2024/02/20 01:35:08;;;;;;;2.03;1.30;;;9.60;99.90;;;;;;4924929;29;20143;-63
2024/02/20 01:37:35;;;;;;;4.05;1.42;;;9.60;99.90;;;;;;4925088;29;20103;-62
2024/02/20 01:40:02;;;;;;;3.78;1.25;;;9.60;99.90;;;;;;4917898;29;20052;-63
2024/02/20 01:42:29;;;;;;;5.43;1.85;;;9.60;99.90;;;;;;4923152;29;20044;-63
2024/02/20 01:44:55;;;;;;;3.40;1.40;;;9.70;99.90;;;;;;4924160;29;20111;-63
2024/02/20 01:47:22;;;;;;;3.40;1.27;;;9.70;99.90;;;;;;4921099;29;20406;-63
2024/02/20 01:49:50;;;;;;;3.63;1.40;;;9.80;99.90;;;;;;4920203;29;20050;-63
2024/02/20 01:52:17;;;;;;;2.55;1.65;;;9.80;99.90;;;;;;4921939;29;20048;-62
2024/02/20 01:54:45;;;;;;;4.40;1.67;;;9.80;99.90;;;;;;4927799;29;20103;-65
2024/02/20 01:57:12;;;;;;;1.55;1.33;;;9.70;99.90;;;;;;4918811;29;20051;-64
2024/02/20 01:59:39;;;;;;;4.43;1.67;;;9.80;99.90;;;;;;4926768;29;20055;-64
2024/02/20 02:02:06;;;;;;;2.83;1.55;;;9.70;99.90;;;;;;4919662;29;20052;-64
2024/02/20 02:04:34;;;;;;;3.55;1.70;;;9.70;99.90;;;;;;4918915;29;20051;-64
2024/02/20 02:07:02;;;;;;;3.80;1.73;;;9.70;99.90;;;;;;4920773;29;20051;-64
2024/02/20 02:09:29;;;;;;;4.97;2.35;;;9.60;99.90;;;;;;4927088;29;20051;-64
2024/02/20 02:11:56;;;;;;;3.85;1.63;;;9.60;99.90;;;;;;4927001;29;20166;-64
2024/02/20 02:14:23;;;;;;;2.20;1.58;;;9.50;99.90;;;;;;4917404;29;20052;-64
2024/02/20 02:16:49;;;;;;;2.92;1.58;;;9.50;99.90;;;;;;4915255;29;20104;-64
2024/02/20 02:19:16;;;;;;;2.20;1.67;;;9.50;99.90;;;;;;4920925;29;20424;-64
2024/02/20 02:21:44;;;;;;;3.22;1.90;;;9.50;99.90;;;;;;4918753;29;20055;-64
2024/02/20 02:24:12;;;;;;;3.35;1.80;;;9.50;99.90;;;;;;4914965;29;20052;-64
2024/02/20 02:26:38;;;;;;;3.53;1.65;;;9.50;99.90;;;;;;4916052;29;20047;-64
2024/02/20 02:29:05;;;;;;;7.85;2.22;;;9.50;99.90;;;;;;4915923;29;20418;-64
2024/02/20 02:31:32;;;;;;;4.60;1.58;;;9.50;99.90;;;;;;4921321;29;20059;-64
2024/02/20 02:33:59;;;;;;;3.35;1.73;;;9.40;99.90;;;;;;4917317;29;20106;-64
2024/02/20 02:36:26;;;;;;;2.25;1.30;;;9.40;99.90;;;;;;4915014;29;20493;-63
2024/02/20 02:38:53;;;;;;;2.90;1.48;;;9.40;99.90;;;;;;4912564;29;20235;-64
2024/02/20 02:41:21;;;;;;;4.43;1.63;;;9.20;99.90;;;;;;4916431;29;20504;-64
2024/02/20 02:43:50;;;;;;;3.67;2.60;;;9.20;99.90;;;;;;4916938;29;20053;-64
2024/02/20 02:46:17;;;;;;;3.28;1.90;;;9.30;99.90;;;;;;4922614;29;20055;-64
2024/02/20 02:48:44;;;;;;;3.85;1.80;;;9.30;99.90;;;;;;4913844;29;20048;-64
2024/02/20 02:51:11;;;;;;;2.55;1.80;;;9.30;99.90;;;;;;4916908;29;20044;-64
2024/02/20 02:53:39;;;;;;;2.40;1.73;;;9.30;99.90;;;;;;4917105;29;20067;-64
2024/02/20 02:56:14;;;;;;;5.30;1.90;;;9.30;99.90;;;;;;4921953;29;20446;-64
2024/02/20 02:58:41;;;;;;;2.75;1.80;;;9.30;99.90;;;;;;4919886;29;20048;-64
2024/02/20 03:01:09;;;;;;;2.95;2.28;;;9.20;99.90;;;;;;4915627;29;20509;-63
2024/02/20 03:03:36;;;;;;;4.53;2.17;;;9.30;99.90;;;;;;4915833;29;20390;-64
2024/02/20 03:06:08;;;;;;;3.53;1.73;;;9.20;99.90;;;;;;4916756;29;20052;-64
2024/02/20 03:08:38;;;;;;;5.38;2.35;;;9.20;99.90;;;;;;4918199;29;20497;-63
2024/02/20 03:11:08;;;;;;;7.90;2.28;;;9.20;99.90;;;;;;4916052;29;20131;-64
2024/02/20 03:13:35;;;;;;;3.08;2.00;;;9.20;99.90;;;;;;4911106;29;20044;-66
2024/02/20 03:16:03;;;;;;;3.85;1.83;;;9.20;99.90;;;;;;4918550;29;20051;-63
2024/02/20 03:18:32;;;;;;;4.55;1.83;;;9.20;99.90;;;;;;4917391;29;20044;-64
2024/02/20 03:21:02;;;;;;;4.78;2.03;;;9.30;99.90;;;;;;4918024;29;20164;-64
2024/02/20 03:23:30;;;;;;;7.30;2.30;;;9.30;99.90;;;;;;4918392;29;20413;-64
2024/02/20 03:25:58;;;;;;;5.22;2.13;;;9.30;99.90;;;;;;4917845;29;20115;-64
2024/02/20 03:28:25;;;;;;;5.25;2.28;;;9.20;99.90;;;;;;4915488;29;20177;-64
2024/02/20 03:30:52;;;;;;;7.85;2.17;;;9.20;99.90;;;;;;4916801;29;20048;-63
2024/02/20 03:33:19;;;;;;;4.45;2.13;;;9.20;99.90;;;;;;4918616;29;20044;-64
2024/02/20 03:35:46;;;;;;;5.00;2.38;;;9.10;99.90;;;;;;4917961;29;20043;-64
2024/02/20 03:38:13;;;;;;;3.58;2.13;;;9.00;99.90;;;;;;4912558;29;20705;-63
2024/02/20 03:40:40;;;;;;;5.80;2.50;;;8.70;99.90;;;;;;4920697;29;20118;-64
2024/02/20 03:43:07;;;;;;;2.85;2.28;;;8.60;99.90;;;;;;4918042;29;20055;-64
2024/02/20 03:45:34;;;;;;;7.53;3.85;;;8.40;99.90;;;;;;4921763;29;20505;-64
2024/02/20 03:48:01;;;;;;;7.18;2.85;;;8.10;99.90;;;;;;4917047;29;20055;-63
2024/02/20 03:50:28;;;;;;;7.40;2.90;;;8.10;99.90;;;;;;4916306;29;20044;-64
2024/02/20 03:52:54;;;;;;;6.50;2.70;;;8.20;99.90;;;;;;4913117;29;20050;-64
2024/02/20 03:55:21;;;;;;;5.13;2.67;;;8.20;99.90;;;;;;4918733;29;20406;-64
2024/02/20 03:57:48;;;;;;;5.32;2.97;;;8.30;99.90;;;;;;4915866;29;20139;-64
2024/02/20 04:00:15;;;;;;;5.60;3.28;;;8.30;99.90;;;;;;4916251;29;20060;-64
2024/02/20 04:02:43;;;;;;;4.85;2.50;;;8.30;99.90;;;;;;4913557;29;20147;-64
2024/02/20 04:05:11;;;;;;;6.07;2.65;;;8.30;99.90;;;;;;4912961;29;20134;-64
2024/02/20 04:07:41;;;;;;;6.97;2.42;;;8.40;99.90;;;;;;4910602;29;20055;-64
2024/02/20 04:10:09;;;;;;;;;;;8.40;99.90;;;;;;4921877;29;20054;-64
2024/02/20 04:12:36;;;;;;;6.57;3.08;;;8.50;99.90;;;;;;4908280;29;20436;-64
2024/02/20 04:15:12;;;;;;;5.40;3.38;;;8.50;99.90;;;;;;4913498;29;20052;-63
2024/02/20 04:17:39;;;;;;;3.17;2.40;;;8.60;99.90;;;;;;4918074;29;20564;-64
2024/02/20 04:20:08;;;;;;;5.15;2.17;;;8.60;99.90;;;;;;4914656;29;20056;-64
2024/02/20 04:22:37;;;;;;;6.03;2.33;;;8.60;99.90;;;;;;4919194;29;20048;-64
2024/02/20 04:25:06;;;;;;;3.08;2.00;;;8.50;99.90;;;;;;4912206;29;20048;-64
2024/02/20 04:27:33;;;;;;;3.38;2.25;;;8.50;99.90;;;;;;4917787;29;20043;-64
2024/02/20 04:30:00;;;;;;;6.63;2.50;;;8.50;99.90;;;;;;4918361;29;20052;-64
2024/02/20 04:32:27;;;;;;;3.75;1.92;;;8.40;99.90;;;;;;4901460;29;20043;-64
2024/02/20 04:34:54;;;;;;;5.40;2.53;;;8.40;99.90;;;;;;4917251;29;20051;-64
2024/02/20 04:37:21;;;;;;;5.25;2.40;;;8.30;99.90;;;;;;4911484;29;20051;-64
2024/02/20 04:39:48;;;;;;;4.55;2.50;;;8.30;99.90;;;;;;4915226;29;20097;-64
2024/02/20 04:42:15;;;;;;;7.85;2.58;;;8.20;99.90;;;;;;4919378;29;20692;-64
2024/02/20 04:44:42;;;;;;;8.65;2.75;;;8.10;99.90;;;;;;4918038;29;20107;-64
2024/02/20 04:47:09;;;;;;;4.80;2.63;;;8.00;99.90;;;;;;4917177;29;20086;-63
2024/02/20 04:49:36;;;;;;;3.78;2.50;;;7.90;99.90;;;;;;4909867;29;20052;-64
2024/02/20 04:52:03;;;;;;;5.55;2.50;;;7.80;99.90;;;;;;4915456;29;20047;-64
2024/02/20 04:54:30;;;;;;;4.65;2.58;;;7.70;99.90;;;;;;4917368;29;20531;-64
2024/02/20 04:56:57;;;;;;;4.40;2.47;;;7.60;99.90;;;;;;4912235;29;20373;-63
2024/02/20 04:59:23;;;;;;;7.20;2.92;;;7.50;99.90;;;;;;4908024;29;20158;-64
2024/02/20 05:01:50;;;;;;;4.55;2.50;;;7.50;99.90;;;;;;4911897;29;20048;-64
2024/02/20 05:04:18;;;;;;;5.53;2.60;;;7.40;99.90;;;;;;4897305;29;20049;-64
2024/02/20 05:06:45;;;;;;;4.35;3.22;;;7.30;99.90;;;;;;4890417;29;20056;-64
2024/02/20 05:09:13;;;;;;;8.18;3.40;;;7.30;99.90;;;;;;4890561;29;20056;-64
2024/02/20 05:11:41;;;;;;;6.68;2.97;;;7.20;99.90;;;;;;4888125;29;20048;-64
2024/02/20 05:14:08;;;;;;;3.72;3.00;;;7.10;99.90;;;;;;4888617;29;20506;-64
2024/02/20 05:16:35;;;;;;;5.93;3.22;;;7.00;99.90;;;;;;4890645;29;20052;-64
2024/02/20 05:19:02;;;;;;;5.10;2.72;;;6.90;99.90;;;;;;4889303;29;20136;-64
2024/02/20 05:21:29;;;;;;;16.20;4.40;;;6.80;99.90;;;;;;4892629;29;20415;-64
2024/02/20 05:23:55;;;;;;;7.13;5.32;;;6.70;99.90;;;;;;4893663;29;20068;-64
2024/02/20 05:26:22;;;;;;;8.40;5.75;;;6.70;99.90;;;;;;4894725;29;20045;-64
2024/02/20 05:28:49;;;;;;;8.13;4.47;;;6.70;99.90;;;;;;4895199;29;20060;-64
2024/02/20 05:31:30;;;;;;;9.70;4.25;;;6.60;99.90;;;;;;4892779;29;20055;-64
2024/02/20 05:33:59;;;;;;;10.18;4.40;;;6.60;99.90;;;;;;4895512;29;20697;-64
2024/02/20 05:36:26;;;;;;;5.40;3.72;;;6.60;99.90;;;;;;4895635;29;20048;-64
2024/02/20 05:38:53;;;;;;;4.82;3.58;;;6.60;99.90;;;;;;4895203;29;20055;-64
2024/02/20 05:41:20;;;;;;;5.88;3.53;;;6.50;99.90;;;;;;4896118;29;20052;-64
2024/02/20 05:43:46;;;;;;;8.63;4.28;;;6.60;99.90;;;;;;4899954;29;20064;-64
2024/02/20 05:46:13;;;;;;;7.13;5.55;;;6.60;99.90;;;;;;4897480;29;20053;-64
2024/02/20 05:48:40;;;;;;;5.28;4.28;;;6.60;99.90;;;;;;4890256;29;20143;-65
2024/02/20 05:51:13;;;;;;;11.10;7.05;;;6.70;99.90;;;;;;4889300;29;20457;-64
2024/02/20 05:53:40;;;;;;;12.82;7.53;;;6.70;99.90;;;;;;4899823;29;20079;-64
2024/02/20 05:56:07;;;;;;;11.93;7.53;;;6.80;99.90;;;;;;4890600;29;20052;-64
2024/02/20 05:58:34;;;;;;;8.65;4.97;;;6.80;99.90;;;;;;4894638;29;20626;-64
2024/02/20 06:01:00;;;;;;;6.95;3.47;;;6.90;99.90;;;;;;4888846;29;20481;-64
2024/02/20 06:03:27;;;;;;;8.27;3.65;;;7.00;99.90;;;;;;4890765;29;20061;-65
2024/02/20 06:05:54;;;;;;;11.88;3.33;;;7.10;99.90;;;;;;4895125;29;20513;-64
2024/02/20 06:08:23;;;;;;;5.65;3.22;;;7.10;99.90;;;;;;4892066;29;20049;-64
2024/02/20 06:10:50;;;;;;;9.52;4.40;;;7.20;99.90;;;;;;4900697;29;20052;-64
2024/02/20 06:13:17;;;;;;;8.35;4.07;;;7.20;99.90;;;;;;4891354;29;20044;-64
2024/02/20 06:15:44;;;;;;;5.30;3.20;;;7.20;99.90;;;;;;4891068;29;20056;-64
2024/02/20 06:18:10;;;;;;;9.30;5.20;;;7.30;99.90;;;;;;4889752;29;20077;-64
2024/02/20 06:20:37;;;;;;;8.93;5.28;;;7.30;99.90;;;;;;4892861;29;20052;-64
2024/02/20 06:23:07;;;;;;;7.93;4.90;;;7.30;99.90;;;;;;4881125;29;20074;-64
2024/02/20 06:25:34;;;;;;;6.97;4.78;;;7.40;99.90;;;;;;4892481;29;20056;-65
2024/02/20 06:28:02;;;;;;;9.52;4.13;;;7.40;99.90;;;;;;4890302;29;20052;-64
2024/02/20 06:30:29;;;;;;;10.75;4.13;;;7.50;99.90;;;;;;4890363;29;20132;-64
2024/02/20 06:32:56;;;;;;;6.93;3.28;;;7.50;99.90;;;;;;4889603;29;20071;-64
2024/02/20 06:35:23;;;;;;;5.13;2.95;;;7.50;99.90;;;;;;4891678;29;20049;-65
2024/02/20 06:37:49;;;;;;;11.52;3.70;;;7.50;99.90;;;;;;4900116;29;20513;-64
2024/02/20 06:40:16;;;;;;;11.82;3.42;;;7.60;99.90;;;;;;4902713;29;20080;-64
2024/02/20 06:42:43;;;;;;;9.77;3.45;;;7.70;99.90;;;;;;4905235;29;20055;-64
2024/02/20 06:45:10;;;;;;;4.70;3.00;;;7.70;99.90;;;;;;4895523;29;20566;-64
2024/02/20 06:47:39;;;;;;;9.40;3.17;;;7.70;99.90;;;;;;4890558;29;20048;-63
2024/02/20 06:50:08;;;;;;;6.10;2.47;;;7.70;99.90;;;;;;4894885;29;20135;-65
2024/02/20 06:52:38;;;;;;;7.60;2.63;;;7.80;99.90;;;;;;4900750;29;20135;-64
2024/02/20 06:55:07;;;;;;;7.22;2.92;;;7.80;99.90;;;;;;4902877;29;20052;-63
2024/02/20 06:57:35;;;;;;;7.68;3.20;;;7.90;99.90;;;;;;4904016;29;20509;-64
2024/02/20 07:00:03;;;;;;;4.07;2.72;;;8.00;99.90;;;;;;4903834;29;20052;-64
2024/02/20 07:02:31;;;;;;;9.68;2.58;;;8.10;99.90;;;;;;4905436;29;20052;-64
2024/02/20 07:04:57;;;;;;;6.80;2.88;;;8.10;99.90;;;;;;4900461;29;20131;-65
2024/02/20 07:07:24;;;;;;;6.10;2.70;;;8.20;99.90;;;;;;4902809;29;20160;-65
2024/02/20 07:09:51;;;;;;;9.50;3.03;;;8.30;99.90;;;;;;4905808;29;20052;-65
2024/02/20 07:12:17;;;;;;;4.53;2.72;;;8.30;99.90;;;;;;4898925;29;20545;-64
2024/02/20 07:14:44;;;;;;;5.97;2.30;;;8.40;99.90;;;;;;4909760;29;20050;-64
2024/02/20 07:17:11;;;;;;;5.40;2.40;;;8.50;99.90;;;;;;4895915;29;20060;-64
2024/02/20 07:19:38;;;;;;;6.85;2.58;;;8.50;99.90;;;;;;4895873;29;20056;-65
2024/02/20 07:22:04;;;;;;;5.70;2.25;;;8.60;99.90;;;;;;4897860;29;20056;-64
2024/02/20 07:24:31;;;;;;;9.63;2.88;;;8.60;99.90;;;;;;4898194;29;20143;-65
2024/02/20 07:26:58;;;;;;;8.68;2.67;;;8.70;99.90;;;;;;4900611;29;20548;-64
2024/02/20 07:29:25;;;;;;;7.25;2.60;;;8.80;99.90;;;;;;4896005;29;20128;-65
2024/02/20 07:31:51;;;;;;;11.95;3.03;;;8.80;99.90;;;;;;4900216;29;20112;-64
2024/02/20 07:34:18;;;;;;;9.80;2.55;;;8.90;99.90;;;;;;4910985;29;20416;-65
2024/02/20 07:36:48;;;;;;;7.97;2.78;;;8.90;99.90;;;;;;4889849;29;20044;-65
2024/02/20 07:39:15;;;;;;;4.20;1.80;;;8.90;99.90;;;;;;4903402;29;20060;-65
2024/02/20 07:41:42;;;;;;;7.03;2.47;;;8.90;99.90;;;;;;4899109;29;20518;-65
2024/02/20 07:44:08;;;;;;;8.70;2.70;;;8.90;99.90;;;;;;4895924;29;20059;-65
2024/02/20 07:46:35;;;;;;;10.02;3.08;;;8.90;99.90;;;;;;4903242;29;20092;-65
2024/02/20 07:49:02;;;;;;;11.75;2.78;;;8.90;99.90;;;;;;4898228;29;20101;-65
2024/02/20 07:51:31;;;;;;;8.93;2.80;;;9.00;99.90;;;;;;4900964;29;20044;-65
2024/02/20 07:53:58;;;;;;;6.95;2.25;;;9.00;99.90;;;;;;4900311;29;20074;-65
2024/02/20 07:56:26;;;;;;;6.80;3.10;;;9.00;99.90;;;;;;4899514;29;20072;-64
2024/02/20 07:58:53;;;;;;;5.78;2.17;;;9.00;99.90;;;;;;4899998;29;20055;-64
2024/02/20 08:01:20;;;;;;;7.05;2.88;;;9.00;99.90;;;;;;4896706;29;20052;-65
2024/02/20 08:03:49;;;;;;;8.07;2.40;;;9.00;99.90;;;;;;4911509;29;20127;-65
2024/02/20 08:06:16;;;;;;;6.35;2.63;;;9.10;99.90;;;;;;4894614;29;20139;-64
2024/02/20 08:08:44;;;;;;;10.70;3.08;;;9.20;99.90;;;;;;4895189;29;20059;-65
2024/02/20 08:11:12;;;;;;;6.25;3.00;;;9.20;99.90;;;;;;4897928;29;20052;-65
2024/02/20 08:13:46;;;;;;;8.00;3.55;;;9.20;99.90;;;;;;4894686;29;20088;-65
2024/02/20 08:16:14;;;;;;;7.10;3.15;;;9.30;99.90;;;;;;4896898;29;20446;-65
2024/02/20 08:18:42;;;;;;;6.50;4.00;;;9.30;99.90;;;;;;4900474;29;20044;-65
2024/02/20 08:21:10;;;;;;;8.82;3.42;;;9.40;99.90;;;;;;4898576;29;20040;-65
2024/02/20 08:23:43;;;;;;;8.30;3.47;;;9.50;99.90;;;;;;4900039;29;20534;-65
2024/02/20 08:26:10;;;;;;;10.02;4.28;;;9.60;99.90;;;;;;4900615;29;20055;-65
2024/02/20 08:28:38;;;;;;;8.38;4.30;;;9.60;99.90;;;;;;4895609;29;20117;-65
2024/02/20 08:31:11;;;;;;;6.55;3.72;;;9.70;99.90;;;;;;4896421;29;20052;-65
2024/02/20 08:33:38;;;;;;;9.02;3.85;;;9.80;99.90;;;;;;4894993;29;20758;-65
2024/02/20 08:36:05;;;;;;;7.57;3.00;;;9.80;99.90;;;;;;4893545;29;20071;-65
2024/02/20 08:38:32;;;;;;;9.88;3.75;;;9.80;99.90;;;;;;4899989;29;20048;-65
2024/02/20 08:40:58;;;;;;;7.30;3.42;;;9.90;99.90;;;;;;4900001;29;20115;-69
2024/02/20 08:43:25;;;;;;;11.38;3.60;;;10.00;99.90;;;;;;4897849;29;20052;-65
2024/02/20 08:45:52;;;;;;;9.07;3.47;;;10.10;99.90;;;;;;4891936;29;20104;-65
2024/02/20 08:48:18;;;;;;;7.90;3.47;;;10.20;99.90;;;;;;4895346;29;20694;-65
2024/02/20 08:50:46;;;;;;;8.68;3.97;;;10.40;99.90;;;;;;4899800;29;20047;-65
2024/02/20 08:53:13;;;;;;;11.82;5.32;;;10.40;99.90;;;;;;4898282;29;20509;-65
2024/02/20 08:55:40;;;;;;;9.00;3.22;;;10.50;99.90;;;;;;4900254;29;20045;-65
2024/02/20 08:58:06;;;;;;;10.70;3.40;;;10.60;99.90;;;;;;4893031;29;20059;-65
2024/02/20 09:00:34;;;;;;;8.20;3.35;;;10.70;99.90;;;;;;4897331;29;20059;-65
2024/02/20 09:03:03;;;;;;;10.13;4.00;;;10.70;99.90;;;;;;4902222;29;20148;-65
2024/02/20 09:05:30;;;;;;;10.55;3.88;;;10.70;99.90;;;;;;4901803;29;20137;-65
2024/02/20 09:07:57;;;;;;;14.70;5.50;;;10.80;99.90;;;;;;4900637;29;20059;-65
2024/02/20 09:10:24;;;;;;;11.63;4.45;;;10.80;99.90;;;;;;4894985;29;20168;-65
2024/02/20 09:12:51;;;;;;;11.90;4.20;;;10.70;99.90;;;;;;4895690;29;20061;-65
2024/02/20 09:15:18;;;;;;;9.07;4.03;;;10.60;99.90;;;;;;4899497;29;20520;-65
2024/02/20 09:17:45;;;;;;;9.02;3.50;;;10.70;99.90;;;;;;4893225;29;20487;-65
2024/02/20 09:20:12;;;;;;;12.27;4.38;;;10.70;99.90;;;;;;4899331;29;20497;-64
2024/02/20 09:22:39;;;;;;;12.13;3.90;;;10.70;99.90;;;;;;4899206;29;20080;-65
2024/02/20 09:25:08;;;;;;;6.90;2.50;;;10.70;99.90;;;;;;4891644;29;20056;-65
2024/02/20 09:27:37;;;;;;;7.20;2.70;;;10.70;99.90;;;;;;4903243;29;20057;-65
2024/02/20 09:30:07;;;;;;;5.10;2.27;;;10.70;99.90;;;;;;4902644;29;20091;-63
2024/02/20 09:32:34;;;;;;;10.20;2.80;;;10.80;99.90;;;;;;4907611;29;20096;-65
2024/02/20 09:35:01;;;;;;;12.55;2.63;;;10.80;99.90;;;;;;4902199;29;20063;-65
2024/02/20 09:37:28;;;;;;;13.38;2.78;;;10.90;99.90;;;;;;4897852;29;20538;-65
2024/02/20 09:39:56;;;;;;;6.30;2.15;;;10.90;99.90;;;;;;4901366;29;20465;-65
2024/02/20 09:42:24;;;;;;;10.45;2.10;;;10.90;99.90;;;;;;4901998;29;20064;-65
2024/02/20 09:44:55;;;;;;;9.13;2.75;;;11.00;99.90;;;;;;4897355;29;20063;-65
2024/02/20 09:47:22;;;;;;;;;;;10.90;99.90;;;;;;4903124;29;20575;-65
2024/02/20 09:49:50;;;;;;;8.95;2.30;;;10.80;99.90;;;;;;4900201;29;19947;-65
2024/02/20 09:52:20;;;;;;;5.88;1.90;;;10.70;99.90;;;;;;4897795;29;20704;-65
2024/02/20 09:54:48;;;;;;;6.72;1.55;;;10.70;99.90;;;;;;4898416;29;20048;-65
2024/02/20 09:57:16;;;;;;;9.63;2.65;;;10.90;99.90;;;;;;4900798;29;20637;-65
2024/02/20 09:59:46;;;;;;;8.43;2.17;;;11.10;99.90;;;;;;4900203;29;20052;-65
2024/02/20 10:02:18;;;;;;;8.80;2.65;;;11.30;99.90;;;;;;4895307;29;20084;-64
2024/02/20 10:04:46;;;;;;;10.18;2.22;;;11.30;99.90;;;;;;4901978;29;20144;-64
2024/02/20 10:07:14;;;;;;;10.52;2.10;;;11.30;99.90;;;;;;4901677;29;20497;-64
2024/02/20 10:09:41;;;;;;;7.28;1.95;;;11.40;99.90;;;;;;4901639;29;20406;-64
2024/02/20 10:12:23;;;;;;;12.20;2.78;;;11.50;99.90;;;;;;4894076;29;20048;-64
2024/02/20 10:14:50;;;;;;;12.15;2.40;;;11.70;99.90;;;;;;4894993;29;20119;-64
2024/02/20 10:17:17;;;;;;;8.63;2.03;;;11.80;99.90;;;;;;4901865;29;20144;-64
2024/02/20 10:19:44;;;;;;;10.45;1.95;;;11.90;99.90;;;;;;4903377;29;20051;-64
2024/02/20 10:22:21;;;;;;;11.80;3.28;;;12.00;99.90;;;;;;4899268;29;20478;-64
2024/02/20 10:24:48;;;;;;;7.07;2.15;;;12.10;99.90;;;;;;4897252;29;20060;-64
2024/02/20 10:27:15;;;;;;;11.07;2.53;;;12.20;99.90;;;;;;4896087;29;20084;-64
2024/02/20 10:29:42;;;;;;;10.15;2.47;;;12.40;99.90;;;;;;4897732;29;20048;-64
2024/02/20 10:32:08;;;;;;;8.82;1.92;;;12.60;99.90;;;;;;4898930;29;20054;-64
2024/02/20 10:34:35;;;;;;;9.82;2.28;;;12.60;99.90;;;;;;4903578;29;20053;-64
2024/02/20 10:37:06;;;;;;;10.35;2.35;;;12.70;99.90;;;;;;4895941;29;20112;-64
2024/02/20 10:39:33;;;;;;;7.93;1.92;;;12.80;99.90;;;;;;4895474;29;20478;-64
2024/02/20 10:42:01;;;;;;;15.05;3.90;;;12.90;99.90;;;;;;4894479;29;20473;-64
2024/02/20 10:44:30;;;;;;;7.63;1.80;;;13.00;99.90;;;;;;4893084;29;20088;-64
2024/02/20 10:46:58;;;;;;;10.70;2.55;;;12.80;99.90;;;;;;4897722;29;20084;-64
2024/02/20 10:49:27;;;;;;;11.65;2.05;;;12.90;99.90;;;;;;4896427;29;20111;-64
2024/02/20 10:52:01;;;;;;;8.80;2.72;;;13.00;99.90;;;;;;4902257;29;20484;-64
2024/02/20 10:54:31;;;;;;;12.45;2.20;;;12.90;99.90;;;;;;4905381;29;20048;-64
2024/02/20 10:57:14;;;;;;;14.40;2.45;;;13.10;99.90;;;;;;4905386;29;20059;-64
2024/02/20 10:59:43;;;;;;;8.40;2.00;;;13.20;99.90;;;;;;4908272;29;20045;-64
2024/02/20 11:02:10;;;;;;;10.05;2.20;;;13.30;99.90;;;;;;4906672;29;20051;-64
2024/02/20 11:04:38;;;;;;;10.73;2.35;;;13.00;99.90;;;;;;4903738;29;20064;-64
2024/02/20 11:07:07;;;;;;;11.73;2.38;;;13.00;99.90;;;;;;4903347;29;20083;-64
2024/02/20 11:09:34;;;;;;;8.18;2.17;;;13.10;99.90;;;;;;4905135;29;20075;-64
2024/02/20 11:12:11;;;;;;;9.63;2.50;;;12.80;99.90;;;;;;4908982;29;20044;-64
2024/02/20 11:14:38;;;;;;;13.30;2.47;;;12.50;99.90;;;;;;4897294;29;20060;-64
2024/02/20 11:17:14;;;;;;;9.45;2.03;;;12.20;99.90;;;;;;4894010;29;20186;-64
2024/02/20 11:20:18;;;;;;;6.93;1.88;;;11.80;99.90;;;;;;4894983;29;20056;-64
2024/02/20 11:22:45;;;;;;;;;;;11.60;99.90;;;;;;4901840;29;20059;-64
2024/02/20 11:25:22;;;;;;;7.80;1.88;;;11.50;99.90;;;;;;4899218;29;20010;-64
2024/02/20 11:27:49;;;;;;;13.50;2.50;;;11.70;99.90;;;;;;4892010;29;20091;-64
2024/02/20 11:30:16;;;;;;;10.55;2.30;;;11.80;99.90;;;;;;4905375;29;20073;-64
2024/02/20 11:32:44;;;;;;;8.85;1.88;;;11.80;99.90;;;;;;4901067;29;20112;-64
2024/02/20 11:35:38;;;;;;;11.35;2.15;;;11.60;99.90;;;;;;4898712;29;20249;-64
2024/02/20 11:38:11;;;;;;;8.05;1.95;;;11.50;99.90;;;;;;4898607;29;20048;-64
2024/02/20 11:40:38;;;;;;;9.27;2.10;;;11.60;99.90;;;;;;4896031;29;20052;-64
2024/02/20 11:43:06;;;;;;;8.13;1.85;;;11.80;99.90;;;;;;4898802;29;20116;-64
2024/02/20 11:45:34;;;;;;;8.68;2.53;;;11.80;99.90;;;;;;4899414;29;20048;-64
2024/02/20 11:48:05;;;;;;;7.65;1.65;;;11.70;99.90;;;;;;4897460;29;20128;-64
2024/02/20 11:50:37;;;;;;;10.25;2.38;;;11.70;99.90;;;;;;4899913;29;20594;-64
2024/02/20 11:53:08;;;;;;;8.75;1.80;;;11.70;99.90;;;;;;4894277;29;20502;-64
2024/02/20 11:55:39;;;;;;;9.45;2.20;;;11.70;99.90;;;;;;4895922;29;20051;-64
2024/02/20 11:58:06;;;;;;;7.95;1.92;;;11.70;99.90;;;;;;4896868;29;20421;-64
2024/02/20 12:00:36;;;;;;;5.35;1.98;;;11.80;99.90;;;;;;4890952;29;20041;-64
2024/02/20 12:03:05;;;;;;;6.47;2.05;;;12.00;99.90;;;;;;4891944;29;20139;-64
2024/02/20 12:05:41;;;;;;;8.30;1.75;;;12.10;99.90;;;;;;4889935;29;20064;-64
2024/02/20 12:08:17;;;;;;;10.02;2.22;;;12.30;99.90;;;;;;4890146;29;20045;-65
2024/02/20 12:10:45;;;;;;;10.25;2.90;;;12.40;99.90;;;;;;4897743;29;20051;-65
2024/02/20 12:13:16;;;;;;;7.55;1.90;;;12.50;99.90;;;;;;4899673;29;20131;-63
2024/02/20 12:15:48;;;;;;;9.50;1.92;;;12.70;99.90;;;;;;4903573;29;20059;-63
2024/02/20 12:18:25;;;;;;;6.70;2.45;;;13.00;99.90;;;;;;4895470;29;20053;-65
2024/02/20 12:21:07;;;;;;;7.72;1.80;;;13.10;99.90;;;;;;4900308;29;20517;-63
2024/02/20 12:23:34;;;;;;;6.13;1.92;;;13.10;99.90;;;;;;4891086;29;20049;-63
2024/02/20 12:26:08;;;;;;;8.98;1.90;;;13.00;99.90;;;;;;4881600;29;20721;-64
2024/02/20 12:28:35;;;;;;;12.45;2.67;;;13.10;99.90;;;;;;4866191;29;20060;-64
2024/02/20 12:31:05;;;;;;;5.65;1.75;;;13.00;99.90;;;;;;4892295;29;20135;-65
2024/02/20 12:33:32;;;;;;;7.33;2.23;;;13.00;99.90;;;;;;4908494;29;20562;-64
2024/02/20 12:35:59;;;;;;;7.40;1.92;;;13.20;99.90;;;;;;4897337;29;20777;-64
2024/02/20 12:38:27;;;;;;;11.02;2.42;;;13.30;99.90;;;;;;4890195;29;20107;-64
2024/02/20 12:40:54;;;;;;;8.68;1.85;;;13.40;99.90;;;;;;4880212;29;20053;-64
2024/02/20 12:43:21;;;;;;;8.68;2.15;;;13.50;99.90;;;;;;4888613;29;20132;-64
2024/02/20 12:45:48;;;;;;;9.32;1.90;;;13.60;99.90;;;;;;4887448;29;20479;-64
2024/02/20 12:48:15;;;;;;;8.27;1.88;;;13.60;99.90;;;;;;4887750;29;20072;-63
2024/02/20 12:50:44;;;;;;;4.30;1.40;;;13.60;99.90;;;;;;4894764;29;20045;-64
2024/02/20 12:53:11;;;;;;;6.30;1.90;;;13.50;99.90;;;;;;4898319;29;20075;-64
2024/02/20 12:55:40;;;;;;;7.93;2.05;;;13.30;99.90;;;;;;4904189;29;20049;-64
2024/02/20 12:58:08;;;;;;;7.63;2.10;;;13.10;99.90;;;;;;4900210;29;20072;-64